createdAt,value
2019-02-18T00:00:08.104Z,70.11
2019-02-18T00:01:13.394Z,69.97
2019-02-18T00:02:17.115Z,70.03
2019-02-18T00:03:20.761Z,69.83
2019-02-18T00:04:24.399Z,69.70
2019-02-18T00:05:28.042Z,69.92
2019-02-18T00:06:31.675Z,69.96
2019-02-18T00:07:35.344Z,70.32
2019-02-18T00:08:38.985Z,71.05
2019-02-18T00:09:42.707Z,71.40
2019-02-18T00:10:46.358Z,71.62
2019-02-18T00:11:50.278Z,71.41
2019-02-18T00:12:54.323Z,71.08
2019-02-18T00:13:57.966Z,70.67
2019-02-18T00:15:01.610Z,70.66
2019-02-18T00:16:05.500Z,71.44
2019-02-18T00:17:09.141Z,71.63
2019-02-18T00:18:13.151Z,71.87
2019-02-18T00:19:16.786Z,71.86
2019-02-18T00:20:20.419Z,72.35
2019-02-18T00:21:24.060Z,72.40
2019-02-18T00:22:27.626Z,72.14
2019-02-18T00:23:31.306Z,71.84
2019-02-18T00:24:34.928Z,71.45
2019-02-18T00:25:38.568Z,71.42
2019-02-18T00:26:42.214Z,71.62
2019-02-18T00:27:45.853Z,71.96
2019-02-18T00:28:49.538Z,72.02
2019-02-18T00:29:53.164Z,72.15
2019-02-18T00:30:56.804Z,72.29
2019-02-18T00:32:00.442Z,72.22
2019-02-18T00:33:04.151Z,71.91
2019-02-18T00:34:07.817Z,71.63
2019-02-18T00:35:11.463Z,71.36
2019-02-18T00:36:15.099Z,71.28
2019-02-18T00:37:24.511Z,71.49
2019-02-18T00:38:24.122Z,71.33
2019-02-18T00:39:27.792Z,71.50
2019-02-18T00:40:31.834Z,71.78
2019-02-18T00:41:35.489Z,72.13
2019-02-18T00:42:39.129Z,72.11
2019-02-18T00:43:42.783Z,71.84
2019-02-18T00:44:46.442Z,71.53
2019-02-18T00:45:50.013Z,71.58
2019-02-18T00:46:53.729Z,72.15
2019-02-18T00:47:57.428Z,72.19
2019-02-18T00:49:01.055Z,72.20
2019-02-18T00:50:06.444Z,72.21
2019-02-18T00:51:10.465Z,72.47
2019-02-18T00:52:14.101Z,72.53
2019-02-18T00:53:17.740Z,72.33
2019-02-18T00:54:21.391Z,72.08
2019-02-18T00:55:25.077Z,71.77
2019-02-18T00:56:28.709Z,71.70
2019-02-18T00:57:32.344Z,71.95
2019-02-18T00:58:35.978Z,71.97
2019-02-18T00:59:39.565Z,72.28
2019-02-18T01:00:43.234Z,72.55
2019-02-18T01:01:46.873Z,72.70
2019-02-18T01:02:50.517Z,72.71
2019-02-18T01:03:54.155Z,72.40
2019-02-18T01:04:57.810Z,72.06
2019-02-18T01:06:01.480Z,71.83
2019-02-18T01:07:05.119Z,71.86
2019-02-18T01:08:09.045Z,72.08
2019-02-18T01:09:12.691Z,72.13
2019-02-18T01:10:16.403Z,72.23
2019-02-18T01:11:20.077Z,72.78
2019-02-18T01:12:23.715Z,73.52
2019-02-18T01:13:27.350Z,73.46
2019-02-18T01:14:30.984Z,73.12
2019-02-18T01:15:34.623Z,72.72
2019-02-18T01:16:38.388Z,72.61
2019-02-18T01:17:42.020Z,72.41
2019-02-18T01:18:45.981Z,72.54
2019-02-18T01:19:49.624Z,72.86
2019-02-18T01:20:53.188Z,72.97
2019-02-18T01:21:56.854Z,72.97
2019-02-18T01:23:00.500Z,72.89
2019-02-18T01:24:04.137Z,72.83
2019-02-18T01:25:10.171Z,72.73
2019-02-18T01:26:13.804Z,72.50
2019-02-18T01:27:17.406Z,72.71
2019-02-18T01:28:21.041Z,72.95
2019-02-18T01:29:24.680Z,73.10
2019-02-18T01:30:28.357Z,73.29
2019-02-18T01:31:31.892Z,73.15
2019-02-18T01:32:35.491Z,73.31
2019-02-18T01:33:39.420Z,73.33
2019-02-18T01:34:43.059Z,73.17
2019-02-18T01:35:47.018Z,73.22
2019-02-18T01:36:50.659Z,73.17
2019-02-18T01:37:54.325Z,73.26
2019-02-18T01:38:57.960Z,73.57
2019-02-18T01:40:01.596Z,73.34
2019-02-18T01:41:05.235Z,73.26
2019-02-18T01:42:08.871Z,73.36
2019-02-18T01:43:15.225Z,73.34
2019-02-18T01:44:18.936Z,73.57
2019-02-18T01:45:22.564Z,73.50
2019-02-18T01:46:26.226Z,73.27
2019-02-18T01:47:29.873Z,72.80
2019-02-18T01:48:33.570Z,72.82
2019-02-18T01:49:37.201Z,73.02
2019-02-18T01:50:40.910Z,73.35
2019-02-18T01:51:44.554Z,73.60
2019-02-18T01:52:48.188Z,73.86
2019-02-18T01:53:51.794Z,74.11
2019-02-18T01:54:55.427Z,73.87
2019-02-18T01:55:59.071Z,73.59
2019-02-18T01:57:02.715Z,73.33
2019-02-18T01:58:06.363Z,73.20
2019-02-18T01:59:10.003Z,73.42
2019-02-18T02:00:16.013Z,73.69
2019-02-18T02:01:19.652Z,73.91
2019-02-18T02:02:23.646Z,73.89
2019-02-18T02:03:27.386Z,73.87
2019-02-18T02:04:31.049Z,74.03
2019-02-18T02:05:34.685Z,73.81
2019-02-18T02:06:38.320Z,73.49
2019-02-18T02:07:41.964Z,72.99
2019-02-18T02:08:45.601Z,73.25
2019-02-18T02:09:49.337Z,73.23
2019-02-18T02:10:52.968Z,73.43
2019-02-18T02:11:56.609Z,73.75
2019-02-18T02:13:25.129Z,73.83
2019-02-18T02:14:29.153Z,73.88
2019-02-18T02:15:33.365Z,74.11
2019-02-18T02:16:36.996Z,74.02
2019-02-18T02:17:40.556Z,73.84
2019-02-18T02:18:44.191Z,73.41
2019-02-18T02:19:48.131Z,73.71
2019-02-18T02:20:51.764Z,73.93
2019-02-18T02:21:55.334Z,74.08
2019-02-18T02:22:58.923Z,74.30
2019-02-18T02:24:02.585Z,74.46
2019-02-18T02:25:06.638Z,74.83
2019-02-18T02:26:10.280Z,74.96
2019-02-18T02:27:13.923Z,74.65
2019-02-18T02:28:17.627Z,74.29
2019-02-18T02:29:21.276Z,73.97
2019-02-18T02:30:25.029Z,73.77
2019-02-18T02:31:28.735Z,73.84
2019-02-18T02:32:32.375Z,74.64
2019-02-18T02:33:35.938Z,74.74
2019-02-18T02:34:39.570Z,75.10
2019-02-18T02:35:43.235Z,74.93
2019-02-18T02:36:46.865Z,74.95
2019-02-18T02:37:50.510Z,74.75
2019-02-18T02:38:54.232Z,74.58
2019-02-18T02:39:57.864Z,74.08
2019-02-18T02:41:01.527Z,74.38
2019-02-18T02:42:05.172Z,74.53
2019-02-18T02:43:08.800Z,74.55
2019-02-18T02:44:12.363Z,74.79
2019-02-18T02:45:16.005Z,75.01
2019-02-18T02:46:19.662Z,75.27
2019-02-18T02:47:23.302Z,75.26
2019-02-18T02:48:29.278Z,75.64
2019-02-18T02:49:32.912Z,75.86
2019-02-18T02:50:36.564Z,75.44
2019-02-18T02:51:40.191Z,75.08
2019-02-18T02:52:43.833Z,74.64
2019-02-18T02:53:47.465Z,74.47
2019-02-18T02:54:51.060Z,74.86
2019-02-18T02:55:54.699Z,74.88
2019-02-18T02:56:58.288Z,75.04
2019-02-18T02:58:01.926Z,75.47
2019-02-18T02:59:05.568Z,75.63
2019-02-18T03:00:12.005Z,75.99
2019-02-18T03:01:15.645Z,75.81
2019-02-18T03:02:19.316Z,75.52
2019-02-18T03:03:22.960Z,75.08
2019-02-18T03:04:26.591Z,75.06
2019-02-18T03:05:30.227Z,75.19
2019-02-18T03:06:33.889Z,75.45
2019-02-18T03:07:37.563Z,75.57
2019-02-18T03:08:41.191Z,75.53
2019-02-18T03:09:44.827Z,75.57
2019-02-18T03:10:48.538Z,75.52
2019-02-18T03:11:52.175Z,75.34
2019-02-18T03:12:55.939Z,75.20
2019-02-18T03:13:59.583Z,74.93
2019-02-18T03:15:03.712Z,75.10
2019-02-18T03:16:07.363Z,75.28
2019-02-18T03:17:11.008Z,75.32
2019-02-18T03:18:14.726Z,75.22
2019-02-18T03:19:18.396Z,75.36
2019-02-18T03:20:21.961Z,75.49
2019-02-18T03:21:25.612Z,75.71
2019-02-18T03:22:29.248Z,75.50
2019-02-18T03:23:32.980Z,75.28
2019-02-18T03:24:36.538Z,74.89
2019-02-18T03:25:40.173Z,75.23
2019-02-18T03:26:43.811Z,75.39
2019-02-18T03:27:48.344Z,75.59
2019-02-18T03:29:06.885Z,75.53
2019-02-18T03:30:39.130Z,75.37
2019-02-18T03:31:42.765Z,75.59
2019-02-18T03:32:46.419Z,75.74
2019-02-18T03:33:53.293Z,75.70
2019-02-18T03:34:56.960Z,75.55
2019-02-18T03:36:00.605Z,75.22
2019-02-18T03:37:04.245Z,75.24
2019-02-18T03:38:07.878Z,75.52
2019-02-18T03:39:11.547Z,75.47
2019-02-18T03:40:15.217Z,75.63
2019-02-18T03:41:18.863Z,75.75
2019-02-18T03:42:22.577Z,75.61
2019-02-18T03:43:26.829Z,75.89
2019-02-18T03:44:30.461Z,75.99
2019-02-18T03:45:34.056Z,75.85
2019-02-18T03:46:37.688Z,75.69
2019-02-18T03:47:41.420Z,75.50
2019-02-18T03:48:44.981Z,75.16
2019-02-18T03:49:48.627Z,75.78
2019-02-18T03:50:53.278Z,76.53
2019-02-18T03:51:56.953Z,77.08
2019-02-18T03:53:00.978Z,77.18
2019-02-18T03:54:04.624Z,77.59
2019-02-18T03:55:10.076Z,77.96
2019-02-18T03:56:13.743Z,78.23
2019-02-18T03:57:17.412Z,77.85
2019-02-18T03:58:21.349Z,77.31
2019-02-18T03:59:25.033Z,76.65
2019-02-18T04:00:28.666Z,76.43
2019-02-18T04:01:32.326Z,76.85
2019-02-18T04:02:35.973Z,77.26
2019-02-18T04:03:39.609Z,77.26
2019-02-18T04:04:43.257Z,77.04
2019-02-18T04:05:46.917Z,77.29
2019-02-18T04:06:50.586Z,77.68
2019-02-18T04:07:54.225Z,77.63
2019-02-18T04:08:58.014Z,77.64
2019-02-18T04:10:01.575Z,77.63
2019-02-18T04:11:05.224Z,77.28
2019-02-18T04:12:08.816Z,76.88
2019-02-18T04:13:12.450Z,76.84
2019-02-18T04:14:16.094Z,76.90
2019-02-18T04:15:19.820Z,76.75
2019-02-18T04:16:23.464Z,76.93
2019-02-18T04:17:27.121Z,77.25
2019-02-18T04:18:30.770Z,77.45
2019-02-18T04:19:34.339Z,77.58
2019-02-18T04:20:37.972Z,77.66
2019-02-18T04:21:41.618Z,77.64
2019-02-18T04:22:45.298Z,77.37
2019-02-18T04:23:49.047Z,77.07
2019-02-18T04:24:52.683Z,76.78
2019-02-18T04:25:56.250Z,77.21
2019-02-18T04:26:59.908Z,77.23
2019-02-18T04:28:03.574Z,77.17
2019-02-18T04:29:07.150Z,77.12
2019-02-18T04:30:13.718Z,77.32
2019-02-18T04:31:17.393Z,77.45
2019-02-18T04:32:21.152Z,77.65
2019-02-18T04:33:24.820Z,77.59
2019-02-18T04:34:28.397Z,77.45
2019-02-18T04:35:34.086Z,77.18
2019-02-18T04:36:37.836Z,76.98
2019-02-18T04:37:41.485Z,76.75
2019-02-18T04:38:53.876Z,77.07
2019-02-18T04:39:50.538Z,77.14
2019-02-18T04:40:54.181Z,77.29
2019-02-18T04:41:57.753Z,77.25
2019-02-18T04:43:01.405Z,77.28
2019-02-18T04:44:05.084Z,77.75
2019-02-18T04:45:11.677Z,77.87
2019-02-18T04:46:15.680Z,77.91
2019-02-18T04:47:19.306Z,77.58
2019-02-18T04:48:22.886Z,77.25
2019-02-18T04:49:26.569Z,76.91
2019-02-18T04:50:30.208Z,77.12
2019-02-18T04:51:33.777Z,77.55
2019-02-18T04:52:37.424Z,77.55
2019-02-18T04:53:41.067Z,77.56
2019-02-18T04:54:44.737Z,77.70
2019-02-18T04:55:48.375Z,77.70
2019-02-18T04:56:52.369Z,77.68
2019-02-18T04:57:56.013Z,77.70
2019-02-18T04:58:59.651Z,77.52
2019-02-18T05:00:03.339Z,77.27
2019-02-18T05:01:07.085Z,77.01
2019-02-18T05:02:11.069Z,77.04
2019-02-18T05:03:14.712Z,76.96
2019-02-18T05:04:18.363Z,77.31
2019-02-18T05:05:22.047Z,77.38
2019-02-18T05:06:25.745Z,77.72
2019-02-18T05:07:29.329Z,77.67
2019-02-18T05:08:32.957Z,77.70
2019-02-18T05:09:36.570Z,77.69
2019-02-18T05:10:40.246Z,77.75
2019-02-18T05:11:44.936Z,77.61
2019-02-18T05:12:48.440Z,77.41
2019-02-18T05:13:52.249Z,76.97
2019-02-18T05:14:55.890Z,76.99
2019-02-18T05:15:59.496Z,77.53
2019-02-18T05:17:03.257Z,78.33
2019-02-18T05:18:06.902Z,78.72
2019-02-18T05:19:10.535Z,78.85
2019-02-18T05:20:14.369Z,78.85
2019-02-18T05:21:18.015Z,79.16
2019-02-18T05:22:21.660Z,80.57
2019-02-18T05:23:25.227Z,81.87
2019-02-18T05:24:28.877Z,81.23
2019-02-18T05:25:32.611Z,81.23
2019-02-18T05:26:36.278Z,80.80
2019-02-18T05:27:39.945Z,81.43
2019-02-18T05:28:43.494Z,80.58
2019-02-18T05:29:47.129Z,81.23
2019-02-18T05:30:50.770Z,81.19
2019-02-18T05:31:54.386Z,81.90
2019-02-18T05:32:58.013Z,80.67
2019-02-18T05:34:01.659Z,81.04
2019-02-18T05:35:06.202Z,80.13
2019-02-18T05:36:10.156Z,78.42
2019-02-18T05:37:13.911Z,77.83
2019-02-18T05:38:17.974Z,77.52
2019-02-18T05:39:21.626Z,77.28
2019-02-18T05:40:25.626Z,77.21
2019-02-18T05:41:31.167Z,77.27
2019-02-18T05:42:34.588Z,77.50
2019-02-18T05:43:38.225Z,77.82
2019-02-18T05:44:41.806Z,78.14
2019-02-18T05:45:45.478Z,77.82
2019-02-18T05:46:49.126Z,77.76
2019-02-18T05:47:52.792Z,77.56
2019-02-18T05:48:56.358Z,78.19
2019-02-18T05:49:59.996Z,78.17
2019-02-18T05:51:03.673Z,77.91
2019-02-18T05:52:07.694Z,77.92
2019-02-18T05:53:11.458Z,77.75
2019-02-18T05:54:15.027Z,77.55
2019-02-18T05:55:18.681Z,77.45
2019-02-18T05:56:22.333Z,79.65
2019-02-18T05:57:25.965Z,79.27
2019-02-18T05:58:29.637Z,78.91
2019-02-18T05:59:33.297Z,78.26
2019-02-18T06:00:36.927Z,77.85
2019-02-18T06:01:40.573Z,78.61
2019-02-18T06:02:44.213Z,79.27
2019-02-18T06:03:47.887Z,79.19
2019-02-18T06:04:51.540Z,78.92
2019-02-18T06:05:55.263Z,78.68
2019-02-18T06:06:59.219Z,78.92
2019-02-18T06:08:02.835Z,79.09
2019-02-18T06:09:06.502Z,79.21
2019-02-18T06:10:10.152Z,79.37
2019-02-18T06:11:13.722Z,79.20
2019-02-18T06:12:17.362Z,79.03
2019-02-18T06:13:24.996Z,78.99
2019-02-18T06:14:28.677Z,79.11
2019-02-18T06:15:32.314Z,79.34
2019-02-18T06:16:37.869Z,79.26
2019-02-18T06:17:42.668Z,79.26
2019-02-18T06:18:46.332Z,79.32
2019-02-18T06:19:50.004Z,79.40
2019-02-18T06:20:53.956Z,79.35
2019-02-18T06:21:57.596Z,79.62
2019-02-18T06:23:01.172Z,79.63
2019-02-18T06:24:05.147Z,79.41
2019-02-18T06:25:08.827Z,79.11
2019-02-18T06:26:12.465Z,78.92
2019-02-18T06:27:17.889Z,79.04
2019-02-18T06:28:21.852Z,79.16
2019-02-18T06:29:25.525Z,79.33
2019-02-18T06:30:29.691Z,79.23
2019-02-18T06:31:33.426Z,79.22
2019-02-18T06:32:37.080Z,79.16
2019-02-18T06:33:40.716Z,79.38
2019-02-18T06:34:44.355Z,79.39
2019-02-18T06:35:48.024Z,79.67
2019-02-18T06:36:51.665Z,79.67
2019-02-18T06:37:55.309Z,79.65
2019-02-18T06:38:58.962Z,79.48
2019-02-18T06:40:02.589Z,79.34
2019-02-18T06:41:06.260Z,79.09
2019-02-18T06:42:11.229Z,79.17
2019-02-18T06:43:15.135Z,79.25
2019-02-18T06:44:20.671Z,78.86
2019-02-18T06:45:25.955Z,78.66
2019-02-18T06:46:31.604Z,78.47
2019-02-18T06:47:35.247Z,78.46
2019-02-18T06:48:40.971Z,78.75
2019-02-18T06:49:44.891Z,78.59
2019-02-18T06:50:48.597Z,78.58
2019-02-18T06:51:53.136Z,78.42
2019-02-18T06:53:00.809Z,78.41
2019-02-18T06:54:04.457Z,78.12
2019-02-18T06:55:09.367Z,78.25
2019-02-18T06:56:13.077Z,78.69
2019-02-18T06:57:21.119Z,78.92
2019-02-18T06:58:26.399Z,78.49
2019-02-18T06:59:31.719Z,77.26
2019-02-18T07:00:42.413Z,77.31
2019-02-18T07:02:05.598Z,76.99
2019-02-18T07:03:24.193Z,76.73
2019-02-18T07:04:32.517Z,76.66
2019-02-18T07:05:40.407Z,78.20
2019-02-18T07:06:54.833Z,76.65
2019-02-18T07:08:00.110Z,76.40
2019-02-18T07:09:08.265Z,75.60
2019-02-18T07:10:22.376Z,75.46
2019-02-18T07:11:33.649Z,75.54
2019-02-18T07:12:38.935Z,75.56
2019-02-18T07:13:42.569Z,74.89
2019-02-18T07:14:46.253Z,74.71
2019-02-18T07:15:49.892Z,74.23
2019-02-18T07:16:53.539Z,74.12
2019-02-18T07:17:57.110Z,73.22
2019-02-18T07:19:01.067Z,73.04
2019-02-18T07:20:06.538Z,72.87
2019-02-18T07:21:10.222Z,71.93
2019-02-18T07:22:13.845Z,70.72
2019-02-18T07:23:18.077Z,70.52
2019-02-18T07:24:21.709Z,70.55
2019-02-18T07:25:26.618Z,70.62
2019-02-18T07:26:30.252Z,70.45
2019-02-18T07:27:33.946Z,70.12
2019-02-18T07:28:37.607Z,70.88
2019-02-18T07:29:41.259Z,69.07
2019-02-18T07:30:45.317Z,68.15
2019-02-18T07:31:50.707Z,67.49
2019-02-18T07:32:54.312Z,67.20
2019-02-18T07:33:57.950Z,66.91
2019-02-18T07:35:01.588Z,66.61
2019-02-18T07:36:05.280Z,65.74
2019-02-18T07:37:08.925Z,65.14
2019-02-18T07:38:13.720Z,64.72
2019-02-18T07:39:17.241Z,64.38
2019-02-18T07:40:20.892Z,64.11
2019-02-18T07:41:24.565Z,63.54
2019-02-18T07:42:28.277Z,63.17
2019-02-18T07:43:32.016Z,62.63
2019-02-18T07:44:35.738Z,61.88
2019-02-18T07:45:39.376Z,61.84
2019-02-18T07:46:43.053Z,61.54
2019-02-18T07:47:46.686Z,61.15
2019-02-18T07:48:50.318Z,60.82
2019-02-18T07:49:53.963Z,60.70
2019-02-18T07:50:57.948Z,60.53
2019-02-18T07:52:01.635Z,60.46
2019-02-18T07:53:05.625Z,61.08
2019-02-18T07:54:10.354Z,61.15
2019-02-18T07:55:14.163Z,61.74
2019-02-18T07:56:23.475Z,61.04
2019-02-18T07:57:28.587Z,60.63
2019-02-18T07:58:32.640Z,61.30
2019-02-18T07:59:36.310Z,61.22
2019-02-18T08:00:39.949Z,61.52
2019-02-18T08:01:43.601Z,61.65
2019-02-18T08:02:47.250Z,61.82
2019-02-18T08:03:50.980Z,61.75
2019-02-18T08:04:54.669Z,61.99
2019-02-18T08:05:58.305Z,60.23
2019-02-18T08:07:01.961Z,59.86
2019-02-18T08:08:05.634Z,59.28
2019-02-18T08:09:09.238Z,58.36
2019-02-18T08:10:12.882Z,57.75
2019-02-18T08:11:16.505Z,57.73
2019-02-18T08:12:20.278Z,58.31
2019-02-18T08:13:23.931Z,58.52
2019-02-18T08:14:27.627Z,58.73
2019-02-18T08:15:31.323Z,58.09
2019-02-18T08:16:34.974Z,57.34
2019-02-18T08:17:38.976Z,56.47
2019-02-18T08:18:42.612Z,55.16
2019-02-18T08:19:46.315Z,54.84
2019-02-18T08:20:50.021Z,54.60
2019-02-18T08:21:53.732Z,54.00
2019-02-18T08:22:57.394Z,53.21
2019-02-18T08:24:01.026Z,52.71
2019-02-18T08:25:06.714Z,52.34
2019-02-18T08:26:10.668Z,51.94
2019-02-18T08:27:14.320Z,51.13
2019-02-18T08:28:17.929Z,51.45
2019-02-18T08:29:21.571Z,51.47
2019-02-18T08:30:25.216Z,51.71
2019-02-18T08:31:28.849Z,51.13
2019-02-18T08:32:32.479Z,52.70
2019-02-18T08:33:36.153Z,51.71
2019-02-18T08:34:39.823Z,50.87
2019-02-18T08:35:43.392Z,49.98
2019-02-18T08:36:47.033Z,48.32
2019-02-18T08:37:50.665Z,48.08
2019-02-18T08:38:54.281Z,48.04
2019-02-18T08:39:57.929Z,48.44
2019-02-18T08:41:01.556Z,48.04
2019-02-18T08:42:05.203Z,46.45
2019-02-18T08:43:08.849Z,46.74
2019-02-18T08:44:12.510Z,47.09
2019-02-18T08:45:16.253Z,46.91
2019-02-18T08:46:19.890Z,47.51
2019-02-18T08:47:23.536Z,46.61
2019-02-18T08:48:27.180Z,46.67
2019-02-18T08:49:30.922Z,47.36
2019-02-18T08:50:34.570Z,47.31
2019-02-18T08:51:38.131Z,45.97
2019-02-18T08:52:41.765Z,45.97
2019-02-18T08:53:47.775Z,45.72
2019-02-18T08:54:56.655Z,45.72
2019-02-18T08:55:56.206Z,45.31
2019-02-18T08:57:00.270Z,44.52
2019-02-18T08:58:03.922Z,44.52
2019-02-18T08:59:07.562Z,45.41
2019-02-18T09:00:14.137Z,44.02
2019-02-18T09:01:18.084Z,44.02
2019-02-18T09:02:21.650Z,43.21
2019-02-18T09:03:25.303Z,42.68
2019-02-18T09:04:28.941Z,42.95
2019-02-18T09:05:32.622Z,43.06
2019-02-18T09:06:36.432Z,42.07
2019-02-18T09:07:40.075Z,42.77
2019-02-18T09:08:43.711Z,42.22
2019-02-18T09:09:47.359Z,41.94
2019-02-18T09:10:51.028Z,41.94
2019-02-18T09:11:54.673Z,42.49
2019-02-18T09:12:58.321Z,41.75
2019-02-18T09:14:01.958Z,42.69
2019-02-18T09:15:07.495Z,42.49
2019-02-18T09:16:11.185Z,42.49
2019-02-18T09:17:14.891Z,41.37
2019-02-18T09:18:18.543Z,39.59
2019-02-18T09:19:22.811Z,39.68
2019-02-18T09:20:26.453Z,39.57
2019-02-18T09:21:31.861Z,37.98
2019-02-18T09:22:55.242Z,37.70
2019-02-18T09:24:00.726Z,38.42
2019-02-18T09:25:07.804Z,38.42
2019-02-18T09:26:13.069Z,37.41
2019-02-18T09:27:16.797Z,37.41
2019-02-18T09:28:20.466Z,36.12
2019-02-18T09:29:24.189Z,37.86
2019-02-18T09:30:29.461Z,37.86
2019-02-18T09:31:34.826Z,36.36
2019-02-18T09:32:38.478Z,35.16
2019-02-18T09:33:42.541Z,34.09
2019-02-18T09:34:46.184Z,34.09
2019-02-18T09:35:49.826Z,34.86
2019-02-18T09:36:56.241Z,35.58
2019-02-18T09:38:00.053Z,34.93
2019-02-18T09:39:04.805Z,34.05
2019-02-18T09:40:10.704Z,33.92
2019-02-18T09:41:14.335Z,33.21
2019-02-18T09:42:17.972Z,32.24
2019-02-18T09:43:21.614Z,32.36
2019-02-18T09:44:25.293Z,32.92
2019-02-18T09:45:28.937Z,32.28
2019-02-18T09:46:32.646Z,32.51
2019-02-18T09:47:36.282Z,33.48
2019-02-18T09:48:39.909Z,33.09
2019-02-18T09:49:43.671Z,34.26
2019-02-18T09:50:47.311Z,32.96
2019-02-18T09:51:50.955Z,33.02
2019-02-18T09:52:54.599Z,31.72
2019-02-18T09:53:58.247Z,31.06
2019-02-18T09:55:01.861Z,32.21
2019-02-18T09:56:05.611Z,31.07
2019-02-18T09:57:09.315Z,31.18
2019-02-18T09:58:12.977Z,31.74
2019-02-18T09:59:16.608Z,31.36
2019-02-18T10:00:20.291Z,31.41
2019-02-18T10:01:23.918Z,29.93
2019-02-18T10:02:27.490Z,30.59
2019-02-18T10:03:31.922Z,31.14
2019-02-18T10:04:36.424Z,30.80
2019-02-18T10:05:40.101Z,30.65
2019-02-18T10:06:43.749Z,28.89
2019-02-18T10:07:47.389Z,29.39
2019-02-18T10:08:53.632Z,29.80
2019-02-18T10:09:57.272Z,29.14
2019-02-18T10:11:00.977Z,29.76
2019-02-18T10:12:04.692Z,29.74
2019-02-18T10:13:13.972Z,29.56
2019-02-18T10:14:17.727Z,29.34
2019-02-18T10:15:21.381Z,29.52
2019-02-18T10:16:25.012Z,28.71
2019-02-18T10:17:28.659Z,27.86
2019-02-18T10:18:32.306Z,27.96
2019-02-18T10:19:36.109Z,28.07
2019-02-18T10:20:40.212Z,27.89
2019-02-18T10:21:44.219Z,27.96
2019-02-18T10:22:47.861Z,26.50
2019-02-18T10:23:51.422Z,25.86
2019-02-18T10:24:55.074Z,26.03
2019-02-18T10:25:58.713Z,26.10
2019-02-18T10:27:02.838Z,27.11
2019-02-18T10:28:06.459Z,26.38
2019-02-18T10:29:10.027Z,25.81
2019-02-18T10:30:13.674Z,26.60
2019-02-18T10:31:17.402Z,27.04
2019-02-18T10:32:21.071Z,25.46
2019-02-18T10:33:24.713Z,25.49
2019-02-18T10:34:28.598Z,24.73
2019-02-18T10:35:32.235Z,23.79
2019-02-18T10:36:35.971Z,24.67
2019-02-18T10:37:39.691Z,24.50
2019-02-18T10:38:43.335Z,24.52
2019-02-18T10:39:46.974Z,23.01
2019-02-18T10:40:50.618Z,22.72
2019-02-18T10:41:54.191Z,23.35
2019-02-18T10:42:57.863Z,25.16
2019-02-18T10:44:01.519Z,24.78
2019-02-18T10:45:07.780Z,26.21
2019-02-18T10:46:11.434Z,26.46
2019-02-18T10:47:15.069Z,25.33
2019-02-18T10:48:18.737Z,26.19
2019-02-18T10:49:23.278Z,24.24
2019-02-18T10:50:27.327Z,23.72
2019-02-18T10:51:31.350Z,23.06
2019-02-18T10:52:35.066Z,23.87
2019-02-18T10:53:38.751Z,23.48
2019-02-18T10:54:42.393Z,23.18
2019-02-18T10:55:46.034Z,23.71
2019-02-18T10:56:49.680Z,22.77
2019-02-18T10:57:53.312Z,22.66
2019-02-18T10:58:56.914Z,22.96
2019-02-18T11:00:00.555Z,22.38
2019-02-18T11:01:04.473Z,23.74
2019-02-18T11:02:08.674Z,22.17
2019-02-18T11:03:12.393Z,21.67
2019-02-18T11:04:16.241Z,21.40
2019-02-18T11:05:20.655Z,22.33
2019-02-18T11:06:24.753Z,22.65
2019-02-18T11:07:28.392Z,21.73
2019-02-18T11:08:32.042Z,21.83
2019-02-18T11:09:35.817Z,22.18
2019-02-18T11:10:39.474Z,21.37
2019-02-18T11:11:43.190Z,20.58
2019-02-18T11:12:47.682Z,20.49
2019-02-18T11:13:51.473Z,20.08
2019-02-18T11:14:55.201Z,20.56
2019-02-18T11:15:58.776Z,20.53
2019-02-18T11:17:02.409Z,21.26
2019-02-18T11:18:06.126Z,20.33
2019-02-18T11:19:09.767Z,20.62
2019-02-18T11:20:14.085Z,20.91
2019-02-18T11:21:17.992Z,20.04
2019-02-18T11:22:21.631Z,20.91
2019-02-18T11:23:25.203Z,20.60
2019-02-18T11:24:28.839Z,20.85
2019-02-18T11:25:32.508Z,20.18
2019-02-18T11:26:37.387Z,20.41
2019-02-18T11:27:41.039Z,19.35
2019-02-18T11:28:44.680Z,19.26
2019-02-18T11:29:48.322Z,18.87
2019-02-18T11:30:52.011Z,20.67
2019-02-18T11:31:56.091Z,19.70
2019-02-18T11:32:59.731Z,19.88
2019-02-18T11:34:03.406Z,20.08
2019-02-18T11:35:07.748Z,20.15
2019-02-18T11:36:11.422Z,18.90
2019-02-18T11:37:15.059Z,19.35
2019-02-18T11:38:18.703Z,18.69
2019-02-18T11:39:22.358Z,17.89
2019-02-18T11:40:25.947Z,18.44
2019-02-18T11:41:29.890Z,18.25
2019-02-18T11:42:34.218Z,18.70
2019-02-18T11:43:37.859Z,18.44
2019-02-18T11:44:41.569Z,18.26
2019-02-18T11:45:45.206Z,19.75
2019-02-18T11:46:48.865Z,18.79
2019-02-18T11:47:52.511Z,19.04
2019-02-18T11:48:56.148Z,19.01
2019-02-18T11:49:59.783Z,18.49
2019-02-18T11:51:03.432Z,18.72
2019-02-18T11:52:07.116Z,18.89
2019-02-18T11:53:11.691Z,18.26
2019-02-18T11:54:15.325Z,18.63
2019-02-18T11:55:18.958Z,18.53
2019-02-18T11:56:22.594Z,19.04
2019-02-18T11:57:26.642Z,18.86
2019-02-18T11:58:30.215Z,18.20
2019-02-18T11:59:33.859Z,17.69
2019-02-18T12:00:37.568Z,17.87
2019-02-18T12:01:41.207Z,19.47
2019-02-18T12:02:44.881Z,19.23
2019-02-18T12:03:48.581Z,18.28
2019-02-18T12:04:52.161Z,19.18
2019-02-18T12:05:55.795Z,18.57
2019-02-18T12:06:59.444Z,18.25
2019-02-18T12:08:03.193Z,19.11
2019-02-18T12:09:07.821Z,18.78
2019-02-18T12:10:12.556Z,18.37
2019-02-18T12:11:16.485Z,18.03
2019-02-18T12:12:20.172Z,16.65
2019-02-18T12:13:23.955Z,16.98
2019-02-18T12:14:27.706Z,18.52
2019-02-18T12:15:31.412Z,17.56
2019-02-18T12:16:35.050Z,17.99
2019-02-18T12:17:38.688Z,17.02
2019-02-18T12:18:42.373Z,17.17
2019-02-18T12:19:46.343Z,16.66
2019-02-18T12:20:49.991Z,17.43
2019-02-18T12:21:53.631Z,17.98
2019-02-18T12:22:57.273Z,17.36
2019-02-18T12:24:01.184Z,16.94
2019-02-18T12:25:06.220Z,17.13
2019-02-18T12:26:10.928Z,17.00
2019-02-18T12:27:14.559Z,18.06
2019-02-18T12:28:18.219Z,18.29
2019-02-18T12:29:26.138Z,17.58
2019-02-18T12:30:27.306Z,17.84
2019-02-18T12:31:30.941Z,17.90
2019-02-18T12:32:35.503Z,17.33
2019-02-18T12:33:39.161Z,16.83
2019-02-18T12:34:42.814Z,17.00
2019-02-18T12:35:46.534Z,17.72
2019-02-18T12:36:50.317Z,16.85
2019-02-18T12:37:55.530Z,16.84
2019-02-18T12:38:59.227Z,16.38
2019-02-18T12:40:03.881Z,17.97
2019-02-18T12:41:07.872Z,17.34
2019-02-18T12:42:11.516Z,16.79
2019-02-18T12:43:17.027Z,17.54
2019-02-18T12:44:20.672Z,17.72
2019-02-18T12:45:24.416Z,18.52
2019-02-18T12:46:28.051Z,17.57
2019-02-18T12:47:31.694Z,17.06
2019-02-18T12:48:35.405Z,16.88
2019-02-18T12:49:39.046Z,17.30
2019-02-18T12:50:42.784Z,17.02
2019-02-18T12:51:46.491Z,16.60
2019-02-18T12:52:50.142Z,16.36
2019-02-18T12:53:53.947Z,16.91
2019-02-18T12:55:00.292Z,16.17
2019-02-18T12:56:04.300Z,16.58
2019-02-18T12:57:07.929Z,18.39
2019-02-18T12:58:11.569Z,17.88
2019-02-18T12:59:15.205Z,18.08
2019-02-18T13:00:18.857Z,16.76
2019-02-18T13:01:22.882Z,18.50
2019-02-18T13:02:26.671Z,16.64
2019-02-18T13:03:30.372Z,16.66
2019-02-18T13:04:34.010Z,17.41
2019-02-18T13:05:37.645Z,17.66
2019-02-18T13:06:41.585Z,17.00
2019-02-18T13:07:45.493Z,17.22
2019-02-18T13:08:49.123Z,17.69
2019-02-18T13:09:52.684Z,16.77
2019-02-18T13:10:56.320Z,17.35
2019-02-18T13:11:59.998Z,16.66
2019-02-18T13:13:03.624Z,17.30
2019-02-18T13:14:07.260Z,17.38
2019-02-18T13:15:15.417Z,17.00
2019-02-18T13:16:19.127Z,16.77
2019-02-18T13:17:22.732Z,16.89
2019-02-18T13:18:26.432Z,17.54
2019-02-18T13:19:29.995Z,16.69
2019-02-18T13:20:33.917Z,17.47
2019-02-18T13:21:37.549Z,16.79
2019-02-18T13:22:41.295Z,16.83
2019-02-18T13:23:44.923Z,17.67
2019-02-18T13:24:48.937Z,18.70
2019-02-18T13:25:52.705Z,19.23
2019-02-18T13:26:56.342Z,17.86
2019-02-18T13:28:08.172Z,17.30
2019-02-18T13:29:05.367Z,17.35
2019-02-18T13:30:17.276Z,17.13
2019-02-18T13:31:20.909Z,16.97
2019-02-18T13:32:24.868Z,17.84
2019-02-18T13:33:28.538Z,18.19
2019-02-18T13:34:32.173Z,20.30
2019-02-18T13:35:36.186Z,21.11
2019-02-18T13:36:39.819Z,19.10
2019-02-18T13:37:43.456Z,19.87
2019-02-18T13:38:47.133Z,19.31
2019-02-18T13:39:50.769Z,20.38
2019-02-18T13:40:54.782Z,19.47
2019-02-18T13:41:58.426Z,19.19
2019-02-18T13:43:02.064Z,20.11
2019-02-18T13:44:05.798Z,20.56
2019-02-18T13:45:09.735Z,20.19